Time;durP1;ratioP1;P1;durP2;ratioP2;P2;SDS_P1;SDS_P2;PMS_P1;PMS_P2;Temp;Humidity;BMP_temperature;BMP_pressure;BME280_temperature;BME280_humidity;BME280_pressure;Samples;Min_cycle;Max_cycle;Signal;HPM_P1;HPM_P2
2022/07/16 00:03:38;;;;;;;3.42;2.03;;;28.90;29.60;;;;;;5991291;29;20426;-72
2022/07/16 00:06:40;;;;;;;9.95;2.00;;;28.80;29.60;;;;;;6004803;29;20034;-71
2022/07/16 00:09:41;;;;;;;9.77;2.15;;;28.60;29.80;;;;;;5976978;29;20415;-70
2022/07/16 00:12:42;;;;;;;6.90;2.05;;;28.40;29.90;;;;;;5979401;29;20068;-72
2022/07/16 00:15:44;;;;;;;7.22;2.13;;;28.40;30.10;;;;;;5981587;29;20070;-71
2022/07/16 00:22:04;;;;;;;10.57;2.25;;;28.30;30.20;;;;;;5995787;29;20039;-74
2022/07/16 00:25:06;;;;;;;5.68;2.28;;;28.40;30.20;;;;;;5992035;29;20215;-72
2022/07/16 00:28:07;;;;;;;10.45;2.88;;;28.30;30.30;;;;;;5987905;29;20357;-71
2022/07/16 00:31:09;;;;;;;7.70;2.03;;;28.20;30.40;;;;;;5985868;29;20110;-72
2022/07/16 00:34:10;;;;;;;12.77;2.10;;;28.20;30.60;;;;;;6002183;29;20772;-72
2022/07/16 00:37:11;;;;;;;2.80;1.60;;;28.30;30.60;;;;;;5986439;29;20049;-72
2022/07/16 00:40:13;;;;;;;4.00;2.20;;;28.40;30.50;;;;;;5988958;29;20034;-72
2022/07/16 00:43:15;;;;;;;3.35;1.98;;;28.40;30.30;;;;;;5977898;29;20034;-71
2022/07/16 00:46:16;;;;;;;2.47;1.92;;;28.50;30.30;;;;;;6002410;29;20038;-71
2022/07/16 00:49:19;;;;;;;2.88;2.00;;;28.40;30.20;;;;;;5989696;29;20041;-71
2022/07/16 00:52:20;;;;;;;4.03;1.95;;;28.40;30.30;;;;;;5980930;29;20050;-72
2022/07/16 00:55:21;;;;;;;5.20;2.10;;;28.50;30.30;;;;;;6004513;29;20034;-72
2022/07/16 00:58:24;;;;;;;3.42;1.98;;;28.50;30.20;;;;;;5990483;29;20139;-72
2022/07/16 01:01:25;;;;;;;4.50;1.90;;;28.40;30.80;;;;;;6003818;29;20429;-72
2022/07/16 01:04:26;;;;;;;5.65;2.13;;;28.30;30.30;;;;;;5970103;29;20034;-73
2022/07/16 01:07:28;;;;;;;4.18;2.30;;;28.20;30.40;;;;;;5988765;29;20034;-72
2022/07/16 01:10:30;;;;;;;5.25;2.00;;;28.10;30.60;;;;;;5989703;29;20022;-71
2022/07/16 01:13:33;;;;;;;4.63;2.15;;;28.10;30.70;;;;;;5964846;29;20034;-72
2022/07/16 01:16:34;;;;;;;4.38;2.20;;;27.90;30.90;;;;;;5981473;29;20549;-72
2022/07/16 01:19:36;;;;;;;3.72;1.67;;;27.80;31.20;;;;;;5994205;29;20095;-72
2022/07/16 01:22:37;;;;;;;3.50;2.15;;;27.70;31.30;;;;;;5999929;29;20030;-72
2022/07/16 01:25:38;;;;;;;3.97;2.28;;;27.60;31.50;;;;;;5986471;29;20034;-72
2022/07/16 01:28:39;;;;;;;5.53;2.10;;;27.50;31.70;;;;;;5993861;29;20042;-72
2022/07/16 01:31:40;;;;;;;2.60;1.98;;;27.50;31.80;;;;;;5986284;29;20034;-72
2022/07/16 01:34:41;;;;;;;6.43;2.30;;;27.50;31.90;;;;;;6003089;29;20110;-72
2022/07/16 01:37:42;;;;;;;6.40;2.25;;;27.50;31.90;;;;;;5967744;29;20121;-72
2022/07/16 01:40:44;;;;;;;4.18;2.00;;;27.40;32.00;;;;;;6005299;29;20034;-71
2022/07/16 01:43:45;;;;;;;4.82;1.95;;;27.40;32.20;;;;;;6003574;29;20129;-73
2022/07/16 01:46:46;;;;;;;5.90;1.90;;;27.30;32.40;;;;;;5993119;29;20372;-71
2022/07/16 01:49:47;;;;;;;3.63;2.10;;;27.20;32.50;;;;;;5992479;29;20041;-71
2022/07/16 01:52:48;;;;;;;3.70;2.13;;;27.10;32.70;;;;;;5991945;29;20133;-71
2022/07/16 01:55:50;;;;;;;3.60;2.05;;;27.10;32.90;;;;;;5993487;29;20031;-71
2022/07/16 01:58:51;;;;;;;12.57;2.13;;;27.00;33.00;;;;;;5992962;29;20038;-71
2022/07/16 02:01:52;;;;;;;6.10;2.03;;;27.00;33.10;;;;;;5993723;29;20046;-72
2022/07/16 02:04:53;;;;;;;4.45;2.20;;;27.00;33.20;;;;;;6009067;29;20038;-71
2022/07/16 02:07:54;;;;;;;8.75;2.05;;;26.90;33.40;;;;;;5992068;29;20035;-72
2022/07/16 02:10:55;;;;;;;3.22;2.03;;;26.80;33.50;;;;;;5996725;29;20437;-71
2022/07/16 02:13:56;;;;;;;4.07;2.22;;;26.80;33.70;;;;;;5989387;29;20047;-73
2022/07/16 02:16:58;;;;;;;5.60;2.45;;;26.90;33.60;;;;;;6005962;29;20030;-72
2022/07/16 02:19:59;;;;;;;3.55;1.70;;;27.00;33.40;;;;;;5995853;29;20102;-73
2022/07/16 02:23:00;;;;;;;6.07;2.35;;;27.00;33.30;;;;;;5992232;29;20037;-72
2022/07/16 02:26:01;;;;;;;10.38;2.25;;;27.00;33.30;;;;;;6005809;29;20353;-72
2022/07/16 02:29:02;;;;;;;3.85;1.70;;;27.00;33.40;;;;;;5975547;29;20161;-72
2022/07/16 02:32:04;;;;;;;2.97;1.98;;;26.80;33.50;;;;;;5983944;29;20484;-72
2022/07/16 02:35:05;;;;;;;5.05;1.83;;;26.80;33.70;;;;;;5993821;29;20053;-72
2022/07/16 02:38:07;;;;;;;5.40;2.08;;;26.70;33.90;;;;;;5991504;29;20054;-73
2022/07/16 02:41:08;;;;;;;4.30;2.08;;;26.60;34.10;;;;;;5983760;29;20473;-72
2022/07/16 02:44:09;;;;;;;6.80;2.20;;;26.70;34.10;;;;;;5990549;29;20049;-72
2022/07/16 02:47:11;;;;;;;4.72;1.90;;;26.70;34.00;;;;;;5982615;29;20353;-71
2022/07/16 02:50:12;;;;;;;2.40;2.03;;;26.70;34.10;;;;;;5989667;29;20038;-72
2022/07/16 02:53:13;;;;;;;5.05;1.92;;;26.70;34.10;;;;;;5990161;29;20489;-72
2022/07/16 02:56:14;;;;;;;3.33;1.80;;;26.60;34.10;;;;;;6007004;29;20057;-71
2022/07/16 02:59:15;;;;;;;10.07;1.90;;;26.60;34.30;;;;;;5991191;29;20035;-71
2022/07/16 03:02:16;;;;;;;2.58;1.80;;;26.50;34.50;;;;;;6006578;29;20098;-72
2022/07/16 03:05:18;;;;;;;2.97;1.83;;;26.40;34.70;;;;;;6006268;29;20030;-72
2022/07/16 03:08:19;;;;;;;10.27;2.40;;;26.30;35.00;;;;;;5990934;29;20049;-72
2022/07/16 03:11:20;;;;;;;3.33;2.22;;;26.40;35.10;;;;;;5988544;29;20782;-72
2022/07/16 03:14:21;;;;;;;2.70;1.70;;;26.40;35.00;;;;;;5990134;29;20372;-72
2022/07/16 03:17:22;;;;;;;4.57;1.80;;;26.30;35.10;;;;;;5988129;29;20405;-71
2022/07/16 03:20:23;;;;;;;3.80;2.08;;;26.20;35.20;;;;;;5988387;29;20041;-71
2022/07/16 03:23:25;;;;;;;5.10;2.05;;;26.10;35.50;;;;;;5986182;29;20042;-71
2022/07/16 03:26:26;;;;;;;3.72;2.00;;;26.00;35.60;;;;;;6005986;29;20121;-71
2022/07/16 03:29:27;;;;;;;4.00;1.73;;;25.90;35.80;;;;;;5991054;29;20059;-71
2022/07/16 03:32:28;;;;;;;5.57;2.15;;;25.90;35.90;;;;;;5990644;29;20027;-71
2022/07/16 03:35:29;;;;;;;3.85;2.10;;;25.90;36.10;;;;;;5987733;29;20030;-71
2022/07/16 03:41:50;;;;;;;7.07;2.15;;;25.90;36.20;;;;;;5989212;29;20056;-71
2022/07/16 03:44:52;;;;;;;5.47;2.20;;;25.80;36.90;;;;;;5989658;29;20114;-71
2022/07/16 03:47:53;;;;;;;4.28;2.08;;;25.70;37.00;;;;;;5990573;29;20072;-70
2022/07/16 03:50:54;;;;;;;10.57;2.00;;;25.70;36.50;;;;;;5996494;29;20034;-71
2022/07/16 03:53:55;;;;;;;6.10;2.13;;;25.60;36.60;;;;;;5975366;29;20070;-71
2022/07/16 03:56:56;;;;;;;4.80;2.47;;;25.60;36.70;;;;;;5992286;29;20476;-72
2022/07/16 03:59:58;;;;;;;2.75;1.92;;;25.60;36.80;;;;;;6005886;29;20034;-71
2022/07/16 04:02:59;;;;;;;3.28;1.88;;;25.60;36.90;;;;;;5983741;29;20110;-74
2022/07/16 04:06:00;;;;;;;3.92;1.92;;;25.70;36.90;;;;;;5977753;29;20383;-71
2022/07/16 04:09:02;;;;;;;5.43;2.15;;;25.70;36.90;;;;;;5987779;29;20042;-73
2022/07/16 04:12:03;;;;;;;4.45;2.35;;;25.70;37.00;;;;;;5988068;29;20048;-71
2022/07/16 04:15:05;;;;;;;3.35;2.00;;;25.70;37.10;;;;;;5999536;29;20114;-71
2022/07/16 04:18:06;;;;;;;6.32;1.88;;;25.60;37.40;;;;;;5982681;29;20103;-72
2022/07/16 04:21:07;;;;;;;4.00;2.08;;;25.50;37.50;;;;;;5995687;29;20038;-71
2022/07/16 04:24:08;;;;;;;5.28;2.25;;;25.40;37.70;;;;;;6002184;29;20129;-71
2022/07/16 04:27:09;;;;;;;6.13;2.30;;;25.30;38.00;;;;;;5972480;29;20030;-71
2022/07/16 04:30:12;;;;;;;3.17;2.00;;;25.20;38.10;;;;;;6004896;29;20417;-72
2022/07/16 04:33:13;;;;;;;6.63;2.08;;;25.20;38.20;;;;;;5966959;29;20045;-72
2022/07/16 04:36:14;;;;;;;13.10;2.15;;;25.20;38.30;;;;;;5986171;29;20034;-72
2022/07/16 04:39:15;;;;;;;2.72;1.85;;;25.20;38.40;;;;;;5989041;29;20038;-72
2022/07/16 04:42:16;;;;;;;3.03;2.00;;;25.10;38.40;;;;;;5982889;29;20039;-72
2022/07/16 04:45:18;;;;;;;7.50;2.10;;;25.10;38.50;;;;;;5989517;29;20044;-72
2022/07/16 04:48:19;;;;;;;5.88;2.55;;;25.00;38.60;;;;;;5989118;29;20046;-71
2022/07/16 04:51:20;;;;;;;8.85;2.20;;;25.00;38.70;;;;;;5988725;29;20034;-71
2022/07/16 04:54:21;;;;;;;7.28;2.17;;;25.00;38.80;;;;;;5990342;29;20103;-72
2022/07/16 04:57:22;;;;;;;3.30;1.88;;;25.00;38.90;;;;;;5989143;29;20069;-71
2022/07/16 05:00:23;;;;;;;6.35;2.50;;;25.00;39.00;;;;;;5988706;29;20038;-71
2022/07/16 05:03:24;;;;;;;7.88;2.38;;;25.00;39.10;;;;;;5989243;29;20042;-71
2022/07/16 05:06:25;;;;;;;2.35;1.85;;;25.00;39.30;;;;;;6003561;29;20113;-72
2022/07/16 05:09:27;;;;;;;7.13;2.30;;;24.90;39.30;;;;;;5987412;29;20117;-72
2022/07/16 05:12:28;;;;;;;5.35;2.20;;;24.90;39.40;;;;;;5979520;29;20027;-71
2022/07/16 05:15:30;;;;;;;6.70;2.10;;;24.90;39.50;;;;;;5994091;29;20049;-71
2022/07/16 05:18:31;;;;;;;8.98;2.40;;;24.90;39.60;;;;;;5988349;29;20121;-72
2022/07/16 05:21:32;;;;;;;6.03;2.85;;;25.10;39.40;;;;;;5965545;29;20354;-72
2022/07/16 05:24:34;;;;;;;9.15;3.00;;;25.20;39.20;;;;;;5988295;29;20030;-72
2022/07/16 05:27:35;;;;;;;5.35;2.10;;;25.20;39.20;;;;;;5989685;29;20039;-71
2022/07/16 05:30:36;;;;;;;9.52;2.75;;;25.20;39.30;;;;;;5982731;29;20113;-72
2022/07/16 05:33:37;;;;;;;4.15;1.77;;;25.20;39.40;;;;;;5966184;29;20042;-71
2022/07/16 05:36:38;;;;;;;6.55;2.38;;;25.20;39.40;;;;;;5988348;29;20031;-71
2022/07/16 05:39:39;;;;;;;5.13;2.15;;;25.20;39.50;;;;;;5985540;29;20026;-72
2022/07/16 05:42:40;;;;;;;1.98;1.50;;;25.30;39.50;;;;;;5988844;29;20074;-71
2022/07/16 05:45:41;;;;;;;3.83;1.88;;;25.40;39.30;;;;;;5989508;29;20448;-71
2022/07/16 05:48:43;;;;;;;8.40;2.30;;;25.60;39.00;;;;;;6003826;29;20026;-71
2022/07/16 05:51:43;;;;;;;5.32;2.25;;;25.80;38.90;;;;;;5988821;29;20030;-72
2022/07/16 05:54:45;;;;;;;5.00;2.20;;;25.90;38.50;;;;;;5987916;29;20063;-71
2022/07/16 05:57:46;;;;;;;4.85;2.47;;;26.00;38.30;;;;;;5988284;29;20030;-71
2022/07/16 06:00:47;;;;;;;3.83;2.10;;;26.00;38.40;;;;;;5986670;29;20722;-73
2022/07/16 06:03:48;;;;;;;7.00;2.80;;;26.10;38.30;;;;;;5986527;29;20650;-71
2022/07/16 06:06:49;;;;;;;8.90;2.08;;;26.20;38.30;;;;;;5986170;29;20292;-72
2022/07/16 06:09:50;;;;;;;3.75;2.00;;;26.30;38.20;;;;;;5985773;29;20023;-71
2022/07/16 06:12:51;;;;;;;14.65;2.13;;;26.40;38.10;;;;;;5987094;29;20122;-71
2022/07/16 06:15:52;;;;;;;3.33;2.20;;;26.50;37.90;;;;;;6002900;29;20068;-72
2022/07/16 06:18:53;;;;;;;7.13;2.28;;;26.60;37.70;;;;;;5994915;29;20117;-72
2022/07/16 06:21:54;;;;;;;5.22;2.00;;;26.50;37.50;;;;;;5992672;29;20031;-72
2022/07/16 06:24:55;;;;;;;10.68;2.42;;;26.50;37.50;;;;;;5987139;29;20374;-71
2022/07/16 06:27:56;;;;;;;5.57;2.00;;;26.60;37.40;;;;;;5989215;29;20406;-72
2022/07/16 06:30:59;;;;;;;5.38;2.10;;;26.60;37.30;;;;;;6006419;29;20090;-71
2022/07/16 06:34:00;;;;;;;4.65;2.20;;;26.80;37.10;;;;;;5985798;29;20067;-71
2022/07/16 06:37:01;;;;;;;3.35;1.77;;;26.90;36.90;;;;;;5992095;29;20046;-71
2022/07/16 06:40:03;;;;;;;6.90;2.13;;;27.00;36.70;;;;;;5992358;29;20054;-72
2022/07/16 06:43:04;;;;;;;4.80;2.72;;;27.10;36.50;;;;;;5992206;29;20030;-71
2022/07/16 06:46:06;;;;;;;3.85;2.03;;;27.10;36.40;;;;;;5992091;29;20066;-70
2022/07/16 06:49:07;;;;;;;6.88;2.35;;;27.20;36.30;;;;;;6006013;29;20046;-72
2022/07/16 06:52:08;;;;;;;8.38;2.30;;;27.20;36.20;;;;;;6000747;29;20057;-72
2022/07/16 06:55:10;;;;;;;5.82;3.00;;;27.30;36.10;;;;;;5990507;29;20038;-71
2022/07/16 06:58:11;;;;;;;8.95;2.50;;;27.30;35.90;;;;;;5989078;29;20392;-71
2022/07/16 07:01:12;;;;;;;3.80;2.03;;;27.60;36.00;;;;;;5980881;29;20111;-72
2022/07/16 07:04:13;;;;;;;23.17;3.53;;;27.70;35.80;;;;;;5989707;29;20034;-72
2022/07/16 07:07:14;;;;;;;5.75;2.78;;;27.70;35.60;;;;;;6003894;29;20030;-72
2022/07/16 07:10:19;;;;;;;11.55;2.80;;;27.90;35.40;;;;;;5991653;29;20034;-71
2022/07/16 07:13:20;;;;;;;6.18;3.15;;;27.90;35.10;;;;;;5991369;29;20070;-71
2022/07/16 07:16:21;;;;;;;8.48;2.30;;;28.00;35.00;;;;;;6005647;29;20090;-72
2022/07/16 07:19:23;;;;;;;3.78;2.33;;;28.00;34.90;;;;;;5990496;29;20061;-73
2022/07/16 07:22:23;;;;;;;4.07;2.05;;;27.90;34.80;;;;;;5978659;29;20129;-72
2022/07/16 07:25:24;;;;;;;5.65;2.13;;;27.80;34.90;;;;;;6004476;29;20392;-72
2022/07/16 07:28:28;;;;;;;5.47;2.15;;;27.90;35.00;;;;;;5991091;29;20034;-71
2022/07/16 07:31:29;;;;;;;3.70;2.22;;;27.90;34.90;;;;;;5989986;29;20460;-71
2022/07/16 07:34:30;;;;;;;4.28;1.92;;;27.90;34.90;;;;;;5993271;29;20027;-71
2022/07/16 07:37:31;;;;;;;4.50;2.40;;;27.90;34.70;;;;;;5991292;29;20357;-72
2022/07/16 07:40:32;;;;;;;4.63;2.50;;;28.00;34.50;;;;;;5989872;29;20372;-72
2022/07/16 07:43:33;;;;;;;3.95;2.10;;;28.00;34.40;;;;;;5990758;29;20132;-72
2022/07/16 07:46:34;;;;;;;4.47;2.25;;;28.00;34.30;;;;;;6004147;29;20050;-73
2022/07/16 07:49:35;;;;;;;7.35;2.25;;;28.10;34.30;;;;;;5989913;29;20079;-71
2022/07/16 07:52:36;;;;;;;3.72;2.40;;;28.10;34.10;;;;;;5985916;29;20085;-71
2022/07/16 07:55:37;;;;;;;5.72;2.25;;;28.10;34.10;;;;;;5971451;29;20049;-71
2022/07/16 07:58:39;;;;;;;2.95;2.13;;;28.20;34.00;;;;;;5987008;29;20042;-70
2022/07/16 08:01:40;;;;;;;3.65;2.08;;;28.40;33.80;;;;;;6002392;29;20034;-71
2022/07/16 08:04:41;;;;;;;3.90;2.25;;;28.50;33.60;;;;;;5992799;29;20034;-72
2022/07/16 08:07:44;;;;;;;4.10;2.30;;;28.60;33.40;;;;;;6003950;29;20061;-72
2022/07/16 08:10:46;;;;;;;8.63;2.58;;;28.70;33.50;;;;;;5987504;29;20030;-72
2022/07/16 08:13:47;;;;;;;5.63;2.25;;;28.70;33.40;;;;;;5989719;29;20046;-72
2022/07/16 08:16:48;;;;;;;3.63;2.15;;;28.90;33.40;;;;;;5990056;29;20030;-71
2022/07/16 08:19:49;;;;;;;6.63;2.50;;;29.00;33.30;;;;;;5986995;29;20061;-72
2022/07/16 08:22:50;;;;;;;3.15;2.00;;;29.20;33.20;;;;;;6003783;29;20538;-72
2022/07/16 08:25:51;;;;;;;2.90;2.25;;;29.30;32.90;;;;;;6003633;29;20380;-72
2022/07/16 08:28:53;;;;;;;3.80;2.25;;;29.50;32.80;;;;;;5988543;29;20548;-72
2022/07/16 08:31:54;;;;;;;3.28;2.00;;;29.60;32.70;;;;;;5989901;29;20127;-73
2022/07/16 08:34:55;;;;;;;3.33;2.28;;;29.80;32.40;;;;;;5988919;29;20457;-71
2022/07/16 08:37:56;;;;;;;7.88;2.63;;;29.90;32.10;;;;;;5989171;29;20399;-72
2022/07/16 08:40:58;;;;;;;4.40;2.40;;;30.00;31.80;;;;;;5986727;29;20117;-72
2022/07/16 08:44:00;;;;;;;6.53;2.20;;;30.10;31.70;;;;;;5987436;29;20062;-72
2022/07/16 08:47:01;;;;;;;5.07;2.20;;;30.20;31.50;;;;;;5988627;29;20065;-72
2022/07/16 08:50:08;;;;;;;3.75;2.40;;;30.30;31.40;;;;;;5986090;29;20127;-72
2022/07/16 08:53:09;;;;;;;5.43;2.13;;;30.30;31.10;;;;;;5987091;29;20078;-72
2022/07/16 08:56:10;;;;;;;2.50;1.77;;;30.40;31.10;;;;;;5999181;29;20043;-72
2022/07/16 08:59:13;;;;;;;3.90;2.40;;;30.40;31.10;;;;;;5987326;29;20038;-72
2022/07/16 09:02:14;;;;;;;7.55;2.20;;;30.40;31.20;;;;;;5986471;29;20429;-71
2022/07/16 09:05:16;;;;;;;5.80;2.38;;;30.40;31.20;;;;;;5986681;29;20067;-71
2022/07/16 09:08:17;;;;;;;3.38;2.20;;;30.60;31.30;;;;;;5988483;29;20044;-72
2022/07/16 09:11:21;;;;;;;8.10;2.10;;;30.60;31.10;;;;;;5988848;29;20083;-71
2022/07/16 09:14:22;;;;;;;3.72;2.33;;;30.70;31.10;;;;;;5989115;29;20163;-72
2022/07/16 09:17:23;;;;;;;4.43;2.42;;;30.60;31.10;;;;;;5988877;29;20038;-72
2022/07/16 09:20:33;;;;;;;4.28;2.20;;;30.70;31.20;;;;;;6003013;29;20091;-72
2022/07/16 09:23:36;;;;;;;4.32;2.05;;;30.70;31.10;;;;;;5989283;29;20073;-72
2022/07/16 09:26:37;;;;;;;3.78;2.00;;;30.90;31.00;;;;;;5990099;29;20039;-72
2022/07/16 09:29:49;;;;;;;5.78;2.30;;;31.00;30.90;;;;;;6002521;29;20157;-71
2022/07/16 09:32:50;;;;;;;3.95;2.17;;;31.10;30.80;;;;;;5987640;29;20026;-73
2022/07/16 09:36:08;;;;;;;4.13;2.30;;;31.10;30.50;;;;;;5982385;29;20547;-72
2022/07/16 09:39:09;;;;;;;3.20;2.10;;;31.20;30.40;;;;;;5986653;29;20034;-71
2022/07/16 09:42:10;;;;;;;6.47;2.40;;;31.30;30.30;;;;;;6001705;29;20099;-71
2022/07/16 09:45:20;;;;;;;3.25;2.08;;;31.40;30.30;;;;;;6000223;29;20057;-72
2022/07/16 09:48:28;;;;;;;7.15;2.70;;;31.40;30.20;;;;;;5985949;29;20433;-72
2022/07/16 09:51:32;;;;;;;;;;;31.50;30.20;;;;;;5985403;29;20109;-72
2022/07/16 09:54:36;;;;;;;8.00;2.75;;;31.50;30.00;;;;;;5985161;29;20351;-72
2022/07/16 09:57:37;;;;;;;5.13;2.50;;;31.60;30.00;;;;;;5991747;29;20049;-72
2022/07/16 10:00:38;;;;;;;3.78;2.15;;;31.60;30.00;;;;;;6002524;29;20050;-73
2022/07/16 10:03:39;;;;;;;6.25;2.25;;;31.70;30.10;;;;;;6007429;29;20049;-72
2022/07/16 10:06:41;;;;;;;4.75;2.50;;;31.80;30.30;;;;;;5994731;29;20053;-71
2022/07/16 10:09:42;;;;;;;11.75;2.65;;;31.80;29.90;;;;;;5992318;29;20030;-72
2022/07/16 10:12:46;;;;;;;4.78;2.28;;;31.80;29.80;;;;;;5992617;29;20121;-73
2022/07/16 10:15:47;;;;;;;6.05;2.35;;;31.90;29.80;;;;;;6006227;29;20034;-72
2022/07/16 10:18:48;;;;;;;4.43;2.42;;;31.90;29.70;;;;;;5967657;29;20102;-73
2022/07/16 10:22:19;;;;;;;7.60;2.75;;;32.00;29.70;;;;;;5992263;29;20074;-72
2022/07/16 10:25:28;;;;;;;4.63;2.28;;;32.00;29.70;;;;;;5992142;29;20038;-73
2022/07/16 10:28:40;;;;;;;6.47;2.40;;;32.00;29.60;;;;;;5988549;29;20388;-73
2022/07/16 10:31:41;;;;;;;3.83;2.30;;;32.00;29.70;;;;;;5983052;29;20046;-72
2022/07/16 10:34:42;;;;;;;4.18;2.10;;;32.10;29.70;;;;;;5990629;29;20509;-72
2022/07/16 10:37:43;;;;;;;3.78;2.15;;;32.20;29.80;;;;;;5989844;29;20038;-72
2022/07/16 10:40:46;;;;;;;3.75;1.95;;;32.20;29.80;;;;;;5989276;29;20026;-72
2022/07/16 10:44:09;;;;;;;4.57;2.20;;;32.20;29.80;;;;;;5990206;29;20038;-72
2022/07/16 10:47:11;;;;;;;10.60;2.10;;;32.30;29.90;;;;;;5987992;29;20038;-71
2022/07/16 10:50:14;;;;;;;11.85;2.45;;;32.30;29.80;;;;;;5989844;29;20383;-71
2022/07/16 10:53:15;;;;;;;3.40;2.05;;;32.40;29.70;;;;;;5990042;29;20046;-71
2022/07/16 10:56:46;;;;;;;4.15;2.60;;;32.40;29.70;;;;;;5990890;29;20038;-72
2022/07/16 10:59:48;;;;;;;3.08;2.08;;;32.50;29.60;;;;;;5991470;29;20037;-72
2022/07/16 11:02:57;;;;;;;3.58;2.25;;;32.50;29.60;;;;;;6005698;29;20045;-72
2022/07/16 11:05:59;;;;;;;4.47;2.00;;;32.60;29.60;;;;;;6006239;29;20094;-71
2022/07/16 11:09:02;;;;;;;3.55;2.53;;;32.80;29.40;;;;;;5991439;29;20030;-71
2022/07/16 11:12:12;;;;;;;4.25;2.40;;;33.50;28.70;;;;;;5988624;29;20424;-72
2022/07/16 11:15:14;;;;;;;7.65;2.53;;;34.40;27.80;;;;;;5992050;29;20034;-73
2022/07/16 11:18:15;;;;;;;4.50;2.35;;;35.30;27.00;;;;;;5990021;29;20137;-72
2022/07/16 11:21:17;;;;;;;6.32;2.20;;;35.90;26.20;;;;;;5989889;29;20580;-72
2022/07/16 11:24:18;;;;;;;4.75;2.30;;;36.40;25.70;;;;;;6003794;29;20527;-71
2022/07/16 11:27:28;;;;;;;4.28;2.30;;;36.70;25.30;;;;;;5989109;29;20067;-71
2022/07/16 11:30:31;;;;;;;8.52;2.47;;;37.00;25.00;;;;;;6003530;29;20049;-71
2022/07/16 11:33:35;;;;;;;8.13;2.20;;;37.20;24.80;;;;;;5987339;29;20022;-72
2022/07/16 11:36:43;;;;;;;12.05;2.13;;;37.40;24.50;;;;;;6001825;29;20336;-72
2022/07/16 11:39:44;;;;;;;3.22;2.10;;;37.50;24.40;;;;;;5989200;29;20491;-72
2022/07/16 11:42:59;;;;;;;2.88;1.95;;;37.60;24.30;;;;;;5990067;29;20073;-73
2022/07/16 11:46:00;;;;;;;4.18;1.95;;;37.70;24.20;;;;;;5990281;29;20118;-71
2022/07/16 11:49:01;;;;;;;5.05;2.00;;;37.70;24.10;;;;;;5990634;29;20121;-71
2022/07/16 11:52:04;;;;;;;4.00;1.90;;;37.70;24.00;;;;;;5990122;29;20372;-72
2022/07/16 11:55:10;;;;;;;5.10;2.42;;;37.80;24.00;;;;;;5989176;29;20034;-71
2022/07/16 11:58:15;;;;;;;2.05;1.83;;;37.90;23.90;;;;;;5990186;29;20115;-71
2022/07/16 12:01:21;;;;;;;7.53;1.85;;;38.10;23.80;;;;;;5990344;29;20070;-72
2022/07/16 12:04:32;;;;;;;7.22;2.38;;;38.10;23.60;;;;;;6004436;29;20046;-73
2022/07/16 12:07:33;;;;;;;3.22;1.80;;;37.90;23.70;;;;;;5990450;29;20470;-71
2022/07/16 12:10:35;;;;;;;3.17;2.00;;;37.80;23.70;;;;;;5989310;29;20520;-71
2022/07/16 12:13:51;;;;;;;4.43;2.03;;;37.70;23.70;;;;;;5990208;29;20071;-71
2022/07/16 12:16:54;;;;;;;4.95;2.15;;;37.70;23.90;;;;;;5982427;29;20026;-72
2022/07/16 12:20:24;;;;;;;4.05;1.98;;;37.60;23.80;;;;;;5989017;29;20102;-72
2022/07/16 12:23:37;;;;;;;3.13;1.95;;;37.80;23.80;;;;;;5970696;29;20045;-71
2022/07/16 12:26:40;;;;;;;6.45;1.90;;;37.80;23.70;;;;;;6001365;29;20380;-72
2022/07/16 12:29:41;;;;;;;11.90;2.20;;;38.00;23.50;;;;;;5987516;29;20094;-72
2022/07/16 12:32:50;;;;;;;4.68;2.00;;;38.00;23.80;;;;;;5987623;29;20117;-72
2022/07/16 12:36:12;;;;;;;4.90;2.05;;;38.00;23.50;;;;;;5988438;29;20034;-73
2022/07/16 12:39:21;;;;;;;3.05;1.80;;;38.00;23.40;;;;;;5989111;29;20038;-71
2022/07/16 12:42:22;;;;;;;2.85;2.00;;;38.10;23.20;;;;;;5988527;29;20038;-71
2022/07/16 12:45:23;;;;;;;6.68;2.15;;;38.00;23.20;;;;;;5989393;29;20554;-72
2022/07/16 12:48:24;;;;;;;3.10;1.95;;;38.00;23.30;;;;;;5988857;29;20022;-71
2022/07/16 12:51:28;;;;;;;5.10;1.95;;;38.20;23.20;;;;;;5989342;29;20035;-71
2022/07/16 12:58:47;;;;;;;4.55;1.75;;;38.30;22.90;;;;;;6003364;29;20054;-71
2022/07/16 13:01:10;;;;;;;3.38;1.67;;;38.60;22.60;;;;;;5989580;29;20042;-71
2022/07/16 13:04:12;;;;;;;4.75;1.75;;;38.80;22.40;;;;;;5989159;29;20123;-71
2022/07/16 13:07:13;;;;;;;3.75;2.00;;;38.90;22.30;;;;;;5989098;29;20022;-72
2022/07/16 13:10:14;;;;;;;7.20;1.92;;;39.10;22.10;;;;;;5988849;29;20030;-73
2022/07/16 13:13:17;;;;;;;4.45;1.80;;;39.20;22.00;;;;;;5986657;29;20038;-72
2022/07/16 13:16:22;;;;;;;3.00;2.10;;;39.30;21.90;;;;;;5988114;29;20448;-71
2022/07/16 13:19:23;;;;;;;3.50;1.98;;;39.60;21.70;;;;;;5986420;29;20532;-80
2022/07/16 13:22:24;;;;;;;7.03;1.80;;;40.00;21.40;;;;;;5987510;29;20037;-71
2022/07/16 13:25:25;;;;;;;2.22;1.95;;;40.50;21.10;;;;;;6000748;29;20030;-71
2022/07/16 13:28:26;;;;;;;3.50;1.90;;;41.20;20.70;;;;;;5984581;29;20053;-71
2022/07/16 13:31:27;;;;;;;3.92;1.85;;;41.70;20.00;;;;;;5993445;29;20457;-72
2022/07/16 13:34:30;;;;;;;4.97;1.58;;;42.20;19.60;;;;;;5987627;29;20044;-71
2022/07/16 13:37:31;;;;;;;4.93;2.03;;;42.80;19.40;;;;;;5988941;29;20058;-71
2022/07/16 13:40:33;;;;;;;3.70;1.77;;;43.40;18.90;;;;;;5987001;29;20384;-71
2022/07/16 13:43:34;;;;;;;2.45;1.75;;;43.80;18.60;;;;;;6003572;29;20034;-72
2022/07/16 13:46:36;;;;;;;3.10;1.90;;;44.20;18.20;;;;;;5988810;29;20041;-71
2022/07/16 13:49:37;;;;;;;4.90;2.10;;;44.60;18.00;;;;;;5988822;29;20113;-72
2022/07/16 13:52:38;;;;;;;7.18;2.25;;;44.80;17.70;;;;;;6001686;29;20050;-71
2022/07/16 13:55:39;;;;;;;9.07;1.92;;;45.20;17.50;;;;;;5988573;29;20041;-71
2022/07/16 13:58:40;;;;;;;5.18;1.98;;;45.40;17.30;;;;;;5987839;29;20034;-71
2022/07/16 14:01:41;;;;;;;7.32;1.90;;;45.60;17.10;;;;;;5987667;29;20133;-72
2022/07/16 14:04:42;;;;;;;4.13;1.83;;;45.90;16.80;;;;;;5988230;29;20035;-72
2022/07/16 14:07:43;;;;;;;7.28;2.05;;;46.10;16.70;;;;;;5988324;29;20704;-71
2022/07/16 14:10:45;;;;;;;2.25;1.45;;;46.30;16.50;;;;;;5986187;29;20034;-71
2022/07/16 14:13:46;;;;;;;4.70;1.85;;;46.50;16.40;;;;;;5986298;29;20022;-71
2022/07/16 14:16:47;;;;;;;10.57;1.80;;;46.70;16.30;;;;;;5986131;29;20057;-71
2022/07/16 14:19:48;;;;;;;6.88;2.25;;;47.10;16.00;;;;;;5985239;29;20113;-72
2022/07/16 14:22:50;;;;;;;3.70;1.90;;;47.10;15.80;;;;;;5984801;29;20068;-71
2022/07/16 14:25:51;;;;;;;4.80;2.00;;;47.20;15.80;;;;;;5985759;29;20192;-71
2022/07/16 14:28:52;;;;;;;2.65;1.70;;;47.40;15.70;;;;;;5987390;29;20387;-71
2022/07/16 14:31:53;;;;;;;6.18;1.80;;;47.40;15.50;;;;;;5988328;29;20022;-71
2022/07/16 14:34:54;;;;;;;2.97;1.55;;;47.40;15.40;;;;;;5988206;29;20045;-71
2022/07/16 14:37:55;;;;;;;1.65;1.38;;;47.00;15.30;;;;;;5989460;29;20030;-72
2022/07/16 14:40:56;;;;;;;2.95;1.95;;;46.70;15.60;;;;;;5988664;29;20041;-72
2022/07/16 14:43:57;;;;;;;9.35;2.28;;;46.60;15.50;;;;;;5986451;29;20034;-72
2022/07/16 14:46:58;;;;;;;2.72;1.60;;;46.60;15.60;;;;;;5987891;29;20122;-72
2022/07/16 14:49:59;;;;;;;4.47;1.75;;;46.40;15.70;;;;;;5990749;29;20105;-72
2022/07/16 14:53:00;;;;;;;2.72;1.75;;;46.50;15.70;;;;;;5991567;29;20047;-72
2022/07/16 14:56:02;;;;;;;2.92;1.80;;;46.70;15.60;;;;;;5991483;29;20041;-72
2022/07/16 14:59:05;;;;;;;4.63;1.52;;;47.00;15.60;;;;;;5990232;29;20053;-72
2022/07/16 15:02:06;;;;;;;3.78;1.40;;;47.00;15.30;;;;;;5992028;29;20034;-71
2022/07/16 15:05:08;;;;;;;5.03;1.70;;;46.70;15.30;;;;;;6005137;29;20039;-72
2022/07/16 15:08:09;;;;;;;5.75;2.08;;;46.50;15.40;;;;;;5990935;29;20109;-72
2022/07/16 15:11:10;;;;;;;5.47;1.88;;;46.30;15.40;;;;;;5989428;29;20049;-72
2022/07/16 15:14:11;;;;;;;2.22;1.35;;;46.00;15.70;;;;;;6003602;29;20046;-72
2022/07/16 15:17:12;;;;;;;7.50;1.65;;;44.90;16.40;;;;;;5988960;29;20670;-70
2022/07/16 15:20:13;;;;;;;2.88;1.70;;;43.60;17.20;;;;;;5989141;29;20030;-71
2022/07/16 15:23:14;;;;;;;6.18;2.00;;;42.50;17.90;;;;;;5988854;29;20421;-72
2022/07/16 15:26:15;;;;;;;5.03;1.70;;;41.80;18.30;;;;;;5990221;29;20352;-72
2022/07/16 15:29:17;;;;;;;2.25;1.63;;;42.00;18.10;;;;;;5990963;29;20026;-72
2022/07/16 15:32:18;;;;;;;4.38;1.83;;;42.60;17.90;;;;;;5988039;29;20453;-71
2022/07/16 15:35:19;;;;;;;3.28;1.90;;;42.90;17.90;;;;;;5989973;29;20065;-73
2022/07/16 15:38:20;;;;;;;10.85;2.17;;;42.80;18.10;;;;;;5990639;29;20133;-72
2022/07/16 15:41:22;;;;;;;4.45;1.60;;;42.50;18.10;;;;;;5991493;29;20042;-72
2022/07/16 15:44:23;;;;;;;4.45;1.70;;;42.20;18.30;;;;;;5988765;29;20030;-72
2022/07/16 15:47:24;;;;;;;4.10;2.03;;;42.00;18.50;;;;;;6004446;29;20031;-72
2022/07/16 15:50:25;;;;;;;5.35;1.55;;;41.80;18.50;;;;;;5990810;29;20397;-72
2022/07/16 15:53:27;;;;;;;3.60;1.40;;;41.80;18.50;;;;;;6004248;29;20133;-72
2022/07/16 15:56:28;;;;;;;1.52;1.42;;;42.00;18.40;;;;;;5989655;29;20391;-72
2022/07/16 15:59:29;;;;;;;5.65;1.60;;;41.90;18.20;;;;;;5989767;29;20039;-72